Time;durP1;ratioP1;P1;durP2;ratioP2;P2;SDS_P1;SDS_P2;PMS_P1;PMS_P2;Temp;Humidity;BMP_temperature;BMP_pressure;BME280_temperature;BME280_humidity;BME280_pressure;Samples;Min_cycle;Max_cycle;Signal;HPM_P1;HPM_P2
2022/02/07 00:00:07;;;;;;;1.00;0.30;;;2.60;99.90;;;;;;5099097;28;20782;-38
2022/02/07 00:05:23;;;;;;;0.83;0.40;;;2.60;99.90;;;;;;5097386;28;20414;-42
2022/02/07 00:07:49;;;;;;;0.60;0.30;;;2.50;99.90;;;;;;5098361;28;20541;-41
2022/02/07 00:10:15;;;;;;;0.80;0.40;;;2.30;99.90;;;;;;5097651;28;20560;-40
2022/02/07 00:12:41;;;;;;;0.87;0.30;;;2.30;99.90;;;;;;5098398;28;20561;-41
2022/02/07 00:15:10;;;;;;;0.80;0.30;;;2.20;99.90;;;;;;5099051;28;20644;-41
2022/02/07 00:17:36;;;;;;;0.70;0.30;;;2.10;99.90;;;;;;5097475;28;20587;-41
2022/02/07 00:20:08;;;;;;;0.70;0.30;;;2.00;99.90;;;;;;5099215;28;20497;-41
2022/02/07 00:22:34;;;;;;;0.60;0.30;;;2.00;99.90;;;;;;5097491;28;20177;-40
2022/02/07 00:24:59;;;;;;;0.60;0.37;;;1.90;99.90;;;;;;5114918;28;20437;-40
2022/02/07 00:27:31;;;;;;;0.80;0.30;;;1.90;99.90;;;;;;5115957;27;20951;-41
2022/02/07 00:29:56;;;;;;;0.67;0.27;;;1.80;99.90;;;;;;5115809;28;20482;-41
2022/02/07 00:32:22;;;;;;;0.73;0.50;;;1.80;99.90;;;;;;5113168;28;20219;-40
2022/02/07 00:34:47;;;;;;;0.67;0.33;;;1.70;99.90;;;;;;5115904;28;20184;-41
2022/02/07 00:37:13;;;;;;;0.63;0.27;;;1.70;99.90;;;;;;5114694;28;20180;-45
2022/02/07 00:39:48;;;;;;;0.90;0.30;;;1.80;99.90;;;;;;5115711;28;20176;-42
2022/02/07 00:42:29;;;;;;;0.80;0.53;;;1.70;99.90;;;;;;5115011;28;20554;-41
2022/02/07 00:44:56;;;;;;;0.60;0.30;;;1.60;99.90;;;;;;5115527;28;20445;-41
2022/02/07 00:47:21;;;;;;;0.87;0.40;;;1.60;99.90;;;;;;5114354;28;20815;-42
2022/02/07 00:49:47;;;;;;;0.80;0.30;;;1.60;99.90;;;;;;5115005;28;20458;-42
2022/02/07 00:52:13;;;;;;;0.90;0.40;;;1.60;99.90;;;;;;5114854;28;20423;-42
2022/02/07 00:54:38;;;;;;;1.50;0.37;;;1.60;99.90;;;;;;5115658;28;20176;-41
2022/02/07 00:57:04;;;;;;;0.87;0.30;;;1.60;99.90;;;;;;5114845;28;20493;-40
2022/02/07 00:59:30;;;;;;;1.00;0.40;;;1.60;99.90;;;;;;5115224;28;20180;-42
2022/02/07 01:01:55;;;;;;;3.40;0.40;;;1.50;99.90;;;;;;5113070;28;20555;-41
2022/02/07 01:04:21;;;;;;;0.87;0.40;;;1.50;99.90;;;;;;5115467;28;20180;-41
2022/02/07 01:06:47;;;;;;;0.80;0.20;;;1.40;99.90;;;;;;5113114;28;20360;-40
2022/02/07 01:56:40;;;;;;;1.00;0.43;;;1.90;99.90;;;;;;5098645;28;20492;-40
2022/02/07 01:59:06;;;;;;;1.13;0.47;;;2.00;99.90;;;;;;5100267;28;20427;-42
2022/02/07 02:01:34;;;;;;;1.20;0.60;;;2.10;99.90;;;;;;5098930;28;20453;-42
2022/02/07 02:03:59;;;;;;;2.50;0.80;;;2.20;99.90;;;;;;5100317;28;20180;-43
2022/02/07 02:06:26;;;;;;;0.93;0.57;;;2.30;99.90;;;;;;5099085;28;20490;-42
2022/02/07 02:08:54;;;;;;;0.97;0.40;;;2.30;99.90;;;;;;5099964;28;20326;-42
2022/02/07 02:11:20;;;;;;;1.13;0.50;;;2.30;99.90;;;;;;5098080;28;20713;-41
2022/02/07 02:45:37;;;;;;;2.10;0.97;;;2.70;99.90;;;;;;5097844;28;20531;-43
2022/02/07 02:48:09;;;;;;;4.17;1.10;;;2.70;99.90;;;;;;5098965;28;20425;-43
2022/02/07 02:50:36;;;;;;;1.87;0.80;;;2.70;99.90;;;;;;5097222;28;20431;-42
2022/02/07 02:53:06;;;;;;;1.30;0.90;;;2.70;99.90;;;;;;5099151;28;20451;-43
2022/02/07 02:55:34;;;;;;;2.40;0.93;;;2.60;99.90;;;;;;5099099;28;20431;-40
2022/02/07 02:58:00;;;;;;;3.63;1.30;;;2.70;99.90;;;;;;5099412;28;20411;-43
2022/02/07 03:00:26;;;;;;;2.90;1.00;;;2.60;99.90;;;;;;5098071;28;20431;-40
2022/02/07 03:02:52;;;;;;;7.63;1.13;;;2.70;99.90;;;;;;5097417;28;20494;-42
2022/02/07 03:05:18;;;;;;;3.13;1.43;;;2.70;99.90;;;;;;5099242;28;20510;-41
2022/02/07 03:07:44;;;;;;;5.83;2.60;;;2.70;99.90;;;;;;5099018;28;20169;-43
2022/02/07 03:10:10;;;;;;;2.77;1.60;;;2.70;99.70;;;;;;5097590;28;20422;-43
2022/02/07 03:12:58;;;;;;;2.90;1.90;;;2.70;99.80;;;;;;5099272;28;20821;-43
2022/02/07 03:18:08;;;;;;;2.27;1.23;;;2.70;99.70;;;;;;5098635;28;20471;-42
2022/02/07 03:20:34;;;;;;;1.80;1.00;;;2.60;99.60;;;;;;5097762;28;20781;-42
2022/02/07 03:22:59;;;;;;;1.80;1.10;;;2.60;99.70;;;;;;5098815;28;20632;-42
2022/02/07 03:25:25;;;;;;;4.30;1.53;;;2.70;99.70;;;;;;5098056;28;20293;-42
2022/02/07 03:27:50;;;;;;;4.00;0.87;;;2.70;99.50;;;;;;5098834;28;20450;-42
2022/02/07 03:30:16;;;;;;;7.40;1.20;;;2.60;99.60;;;;;;5098029;28;20188;-41
2022/02/07 03:32:42;;;;;;;2.50;1.43;;;2.60;99.60;;;;;;5097835;28;20181;-42
2022/02/07 03:35:08;;;;;;;3.33;1.20;;;2.50;99.60;;;;;;5098449;28;20444;-42
2022/02/07 03:37:34;;;;;;;3.90;1.50;;;2.50;99.60;;;;;;5098020;28;20191;-41
2022/02/07 03:40:00;;;;;;;4.03;1.00;;;2.50;99.20;;;;;;5096858;28;20438;-42
2022/02/07 03:42:25;;;;;;;2.20;0.87;;;2.50;99.10;;;;;;5080751;28;20419;-42
2022/02/07 03:44:51;;;;;;;4.83;1.27;;;2.50;98.90;;;;;;5097807;28;20204;-42
2022/02/07 03:47:16;;;;;;;2.20;1.10;;;2.50;99.00;;;;;;5098029;28;20201;-42
2022/02/07 03:49:42;;;;;;;2.10;1.17;;;2.60;98.90;;;;;;5098583;28;20185;-41
2022/02/07 03:52:09;;;;;;;2.27;0.93;;;2.60;99.10;;;;;;5096506;28;20184;-42
2022/02/07 03:54:35;;;;;;;2.90;1.80;;;2.60;99.10;;;;;;5098119;28;20706;-40
2022/02/07 03:57:01;;;;;;;3.93;1.40;;;2.70;99.20;;;;;;5096479;28;20430;-41
2022/02/07 03:59:27;;;;;;;2.00;0.80;;;2.70;99.90;;;;;;5098436;28;20770;-43
2022/02/07 04:01:52;;;;;;;2.07;1.20;;;2.30;99.70;;;;;;5096252;28;20439;-41
2022/02/07 04:04:18;;;;;;;3.07;0.60;;;2.10;99.90;;;;;;5097830;28;20172;-40
2022/02/07 04:06:44;;;;;;;1.93;0.60;;;1.90;99.90;;;;;;5097301;28;20372;-40
2022/02/07 04:09:12;;;;;;;1.77;0.67;;;1.70;99.90;;;;;;5097589;28;20318;-40
2022/02/07 04:11:45;;;;;;;1.57;0.57;;;1.60;99.90;;;;;;5097269;28;20176;-43
2022/02/07 04:14:19;;;;;;;2.90;0.80;;;1.50;99.90;;;;;;5097484;28;20521;-41
2022/02/07 04:16:44;;;;;;;0.80;0.40;;;1.50;99.90;;;;;;5096003;28;20511;-40
2022/02/07 04:19:17;;;;;;;2.17;0.70;;;1.40;99.90;;;;;;5098434;28;20455;-43
2022/02/07 04:21:44;;;;;;;2.97;0.80;;;1.50;99.90;;;;;;5096903;28;20590;-39
2022/02/07 04:24:10;;;;;;;2.23;0.90;;;1.50;99.90;;;;;;5097929;28;20419;-42
2022/02/07 04:26:36;;;;;;;1.43;0.70;;;1.50;99.90;;;;;;5096645;28;20482;-43
2022/02/07 04:29:03;;;;;;;2.13;0.60;;;1.40;99.90;;;;;;5097896;28;20172;-42
2022/02/07 04:31:28;;;;;;;3.07;1.17;;;1.40;99.90;;;;;;5096393;28;20431;-42
2022/02/07 04:33:55;;;;;;;2.50;1.17;;;1.50;99.90;;;;;;5097931;28;20506;-41
2022/02/07 04:36:21;;;;;;;1.60;1.37;;;1.50;99.90;;;;;;5095990;28;20224;-39
2022/02/07 04:38:47;;;;;;;7.83;1.23;;;1.50;99.90;;;;;;5097576;28;20423;-38
2022/02/07 04:41:12;;;;;;;2.93;1.10;;;1.50;99.90;;;;;;5096367;28;20430;-41
2022/02/07 04:43:49;;;;;;;4.27;2.80;;;1.50;99.90;;;;;;5097949;28;20184;-40
2022/02/07 04:57:17;;;;;;;3.13;1.97;;;1.50;99.90;;;;;;5053601;28;20432;-40
2022/02/07 05:00:07;;;;;;;4.30;1.93;;;1.50;99.90;;;;;;5095119;28;20900;-41
2022/02/07 05:15:46;;;;;;;2.10;0.83;;;1.50;99.90;;;;;;5099156;28;20430;-45
2022/02/07 05:18:11;;;;;;;1.83;1.33;;;1.50;99.90;;;;;;5097169;28;20480;-45
2022/02/07 05:20:37;;;;;;;3.47;1.10;;;1.50;99.90;;;;;;5098700;28;20485;-45
2022/02/07 05:23:03;;;;;;;3.80;1.10;;;1.50;99.90;;;;;;5098531;28;20181;-45
2022/02/07 05:25:28;;;;;;;2.93;0.97;;;1.50;99.90;;;;;;5099070;28;20274;-46
2022/02/07 05:27:54;;;;;;;4.37;1.20;;;1.50;99.90;;;;;;5098084;28;20181;-45
2022/02/07 05:30:19;;;;;;;4.63;1.20;;;1.50;99.90;;;;;;5097921;28;20257;-46
2022/02/07 05:32:45;;;;;;;3.90;1.27;;;1.50;99.90;;;;;;5097337;28;20196;-46
2022/02/07 05:35:11;;;;;;;2.30;1.17;;;1.50;99.90;;;;;;5097870;28;20230;-46
2022/02/07 05:37:37;;;;;;;10.40;1.60;;;1.50;99.90;;;;;;5096361;28;20614;-45
2022/02/07 05:40:09;;;;;;;5.13;1.20;;;1.50;99.90;;;;;;5099018;28;20184;-46
2022/02/07 05:42:38;;;;;;;3.93;1.37;;;1.50;99.90;;;;;;5097663;28;20722;-46
2022/02/07 05:45:06;;;;;;;4.50;1.50;;;1.50;99.90;;;;;;5099368;28;20423;-45
2022/02/07 05:47:32;;;;;;;5.63;1.43;;;1.50;99.80;;;;;;5097720;28;20472;-46
2022/02/07 05:49:58;;;;;;;7.63;2.00;;;1.50;99.70;;;;;;5099012;28;20423;-45
2022/02/07 05:52:23;;;;;;;5.83;1.40;;;1.60;99.60;;;;;;5097384;28;20191;-45
2022/02/07 05:54:49;;;;;;;5.10;1.40;;;1.60;99.30;;;;;;5098169;28;20260;-45
2022/02/07 05:57:15;;;;;;;4.53;1.47;;;1.60;99.20;;;;;;5098365;28;20203;-45
2022/02/07 05:59:42;;;;;;;4.90;1.90;;;1.60;99.10;;;;;;5089914;28;20427;-46
2022/02/07 06:02:08;;;;;;;2.07;1.10;;;1.60;98.90;;;;;;5091453;28;20877;-46
2022/02/07 06:04:34;;;;;;;4.03;1.17;;;1.70;98.70;;;;;;5080662;28;20445;-46
2022/02/07 06:07:00;;;;;;;6.70;1.10;;;1.70;98.70;;;;;;5078501;28;20455;-46
2022/02/07 06:09:26;;;;;;;4.20;1.40;;;1.70;98.70;;;;;;5095910;28;20250;-47
2022/02/07 06:11:55;;;;;;;3.87;1.17;;;1.70;98.80;;;;;;5098204;28;20251;-47
2022/02/07 06:14:21;;;;;;;4.93;1.07;;;1.70;98.60;;;;;;5098082;28;20437;-44
2022/02/07 06:16:46;;;;;;;6.13;1.57;;;1.70;98.40;;;;;;5097701;28;20750;-45
2022/02/07 06:19:12;;;;;;;3.83;1.77;;;1.70;98.30;;;;;;5087908;28;20189;-45
2022/02/07 06:21:38;;;;;;;8.63;2.30;;;1.80;98.00;;;;;;5089860;28;20169;-45
2022/02/07 06:24:04;;;;;;;3.40;1.30;;;1.80;97.90;;;;;;5088526;28;20186;-45
2022/02/07 06:26:30;;;;;;;6.30;1.60;;;1.80;97.70;;;;;;5075314;28;20760;-45
2022/02/07 06:28:57;;;;;;;4.00;1.50;;;1.80;97.90;;;;;;5076380;28;20522;-45
2022/02/07 06:31:23;;;;;;;3.03;1.60;;;1.80;97.80;;;;;;5084754;28;20438;-45
2022/02/07 06:33:49;;;;;;;4.77;1.70;;;1.90;97.90;;;;;;5080872;28;20451;-45
2022/02/07 06:36:14;;;;;;;9.77;1.60;;;1.80;97.80;;;;;;5078754;28;20699;-45
2022/02/07 06:38:40;;;;;;;1.83;1.30;;;1.90;98.00;;;;;;5076931;28;20193;-45
2022/02/07 06:41:06;;;;;;;4.60;1.33;;;1.90;98.10;;;;;;5076649;28;20432;-46
2022/02/07 06:43:31;;;;;;;3.80;1.57;;;1.90;98.10;;;;;;5076033;28;20623;-45
2022/02/07 06:45:58;;;;;;;4.03;1.30;;;1.90;98.00;;;;;;5074530;28;20267;-45
2022/02/07 06:48:25;;;;;;;2.47;1.40;;;1.80;98.10;;;;;;5074003;28;20173;-45
2022/02/07 06:50:50;;;;;;;4.07;1.17;;;1.80;98.30;;;;;;5073650;28;20420;-45
2022/02/07 06:53:16;;;;;;;4.03;1.03;;;1.70;98.40;;;;;;5071799;28;20430;-45
2022/02/07 06:55:42;;;;;;;3.37;1.57;;;1.70;98.50;;;;;;5072194;28;20177;-45
2022/02/07 06:58:08;;;;;;;4.23;1.60;;;1.70;98.20;;;;;;5072152;28;20661;-45
2022/02/07 07:00:34;;;;;;;4.90;1.70;;;1.70;98.10;;;;;;5073630;28;20181;-45
2022/02/07 07:03:00;;;;;;;4.90;1.53;;;1.70;97.90;;;;;;5073209;28;20851;-45
2022/02/07 07:05:26;;;;;;;5.40;1.60;;;1.80;97.70;;;;;;5072143;28;20447;-45
2022/02/07 07:07:52;;;;;;;4.63;2.10;;;1.80;97.60;;;;;;5072746;28;20416;-45
2022/02/07 07:10:18;;;;;;;3.50;1.60;;;1.70;97.40;;;;;;5073943;28;20424;-45
2022/02/07 07:12:47;;;;;;;9.17;1.97;;;1.80;97.50;;;;;;5075439;28;20510;-45
2022/02/07 07:15:16;;;;;;;4.30;1.70;;;1.80;97.60;;;;;;5076328;28;20435;-44
2022/02/07 07:17:42;;;;;;;3.87;1.37;;;1.80;97.60;;;;;;5076366;28;20446;-45
2022/02/07 07:20:08;;;;;;;3.77;1.60;;;1.90;97.60;;;;;;5077009;28;20838;-44
2022/02/07 07:22:35;;;;;;;5.37;1.83;;;2.00;97.50;;;;;;5077126;28;20545;-45
2022/02/07 07:25:01;;;;;;;4.83;1.60;;;1.90;97.50;;;;;;5076719;28;20505;-44
2022/02/07 07:27:31;;;;;;;2.13;1.17;;;1.90;97.60;;;;;;5077019;28;20487;-45
2022/02/07 07:29:57;;;;;;;4.97;2.00;;;1.90;97.60;;;;;;5075363;28;20451;-45
2022/02/07 07:32:27;;;;;;;9.30;1.93;;;1.90;97.60;;;;;;5076323;28;20408;-45
2022/02/07 07:34:52;;;;;;;5.67;1.67;;;2.00;97.60;;;;;;5074649;28;20197;-45
2022/02/07 07:37:18;;;;;;;4.37;2.13;;;2.00;97.60;;;;;;5075325;28;20485;-45
2022/02/07 07:39:44;;;;;;;3.50;1.40;;;2.00;97.60;;;;;;5075009;28;20208;-45
2022/02/07 07:42:10;;;;;;;4.70;1.60;;;2.00;97.70;;;;;;5076238;28;20181;-45
2022/02/07 07:44:38;;;;;;;5.70;1.70;;;1.90;97.50;;;;;;5076108;28;20185;-45
2022/02/07 07:47:16;;;;;;;7.53;2.80;;;1.90;97.50;;;;;;5075597;28;20503;-45
2022/02/07 07:49:56;;;;;;;3.53;1.50;;;2.00;97.40;;;;;;5074731;28;20416;-45
2022/02/07 07:52:32;;;;;;;6.57;2.00;;;2.10;97.30;;;;;;5074131;28;20864;-45
2022/02/07 08:03:16;;;;;;;5.03;1.80;;;2.60;96.00;;;;;;5045684;28;20419;-45
2022/02/07 08:05:49;;;;;;;5.80;1.60;;;2.90;95.70;;;;;;5075145;28;20467;-45
2022/02/07 08:08:24;;;;;;;5.00;1.50;;;3.00;95.30;;;;;;5073326;28;20557;-45
2022/02/07 08:11:02;;;;;;;6.40;2.13;;;3.10;95.30;;;;;;5073781;28;20415;-45
2022/02/07 08:13:30;;;;;;;8.23;1.40;;;3.30;95.00;;;;;;5073043;28;20435;-45
2022/02/07 08:15:56;;;;;;;6.03;1.40;;;3.40;94.40;;;;;;5074126;28;20702;-45
2022/02/07 08:18:22;;;;;;;3.43;1.83;;;3.50;94.20;;;;;;5073327;28;20447;-45
2022/02/07 08:20:47;;;;;;;6.70;1.40;;;3.70;93.90;;;;;;5074928;28;20439;-45
2022/02/07 08:23:13;;;;;;;4.00;1.60;;;3.80;93.60;;;;;;5074089;28;20192;-45
2022/02/07 08:25:38;;;;;;;4.20;1.40;;;3.90;93.20;;;;;;5075137;28;20619;-45
2022/02/07 08:28:06;;;;;;;8.13;1.60;;;4.10;92.90;;;;;;5074221;28;20187;-45
2022/02/07 08:30:32;;;;;;;4.30;1.53;;;4.20;92.80;;;;;;5073125;28;20189;-45
2022/02/07 08:33:00;;;;;;;7.43;1.60;;;4.30;92.20;;;;;;5072911;28;20423;-45
2022/02/07 08:35:25;;;;;;;4.50;1.70;;;4.20;92.50;;;;;;5071358;28;20431;-45
2022/02/07 08:37:51;;;;;;;3.63;1.40;;;4.30;92.30;;;;;;5072893;28;20480;-45
2022/02/07 08:40:17;;;;;;;5.87;1.67;;;4.30;92.10;;;;;;5071931;28;20538;-45
2022/02/07 08:42:43;;;;;;;4.20;1.63;;;4.50;91.80;;;;;;5074399;28;20423;-45
2022/02/07 08:45:10;;;;;;;5.77;1.53;;;4.60;91.50;;;;;;5073430;28;20408;-45
2022/02/07 08:47:36;;;;;;;2.30;1.67;;;4.70;91.10;;;;;;5073765;28;20459;-45
2022/02/07 08:50:02;;;;;;;3.00;1.77;;;4.90;91.30;;;;;;5076816;28;20891;-45
2022/02/07 08:52:28;;;;;;;4.23;1.57;;;4.90;90.80;;;;;;5078063;28;20260;-45
2022/02/07 08:54:56;;;;;;;5.50;1.97;;;4.90;91.10;;;;;;5079306;28;20901;-45
2022/02/07 08:57:30;;;;;;;5.73;1.90;;;5.20;91.20;;;;;;5076553;28;20276;-45
2022/02/07 09:00:13;;;;;;;3.10;1.37;;;4.90;90.40;;;;;;5077928;28;20743;-45
2022/02/07 09:10:37;;;;;;;3.40;1.30;;;4.60;91.40;;;;;;5077564;28;20426;-45
2022/02/07 09:13:03;;;;;;;4.40;1.73;;;4.80;91.10;;;;;;5079069;28;20667;-45
2022/02/07 09:15:39;;;;;;;6.63;1.27;;;5.10;90.80;;;;;;5077020;28;20185;-45
2022/02/07 09:18:07;;;;;;;4.73;1.57;;;5.10;90.70;;;;;;5096457;28;20241;-45
2022/02/07 09:20:36;;;;;;;3.33;1.50;;;5.20;90.30;;;;;;5097456;28;20435;-45
2022/02/07 09:23:02;;;;;;;4.43;1.50;;;4.80;89.70;;;;;;5099691;28;20789;-45
2022/02/07 09:25:28;;;;;;;6.97;1.60;;;4.60;90.30;;;;;;5097960;28;20522;-44
2022/02/07 09:27:54;;;;;;;3.90;1.90;;;4.50;90.70;;;;;;5098023;28;20475;-45
2022/02/07 09:30:20;;;;;;;3.00;1.57;;;4.30;90.90;;;;;;5095898;28;20442;-45
2022/02/07 09:32:46;;;;;;;5.20;2.10;;;4.20;91.20;;;;;;5096056;28;20415;-45
2022/02/07 09:35:12;;;;;;;8.67;2.27;;;4.10;91.40;;;;;;5095802;28;20180;-45
2022/02/07 09:37:38;;;;;;;9.77;2.33;;;3.80;91.40;;;;;;5098369;28;20187;-45
2022/02/07 09:40:04;;;;;;;9.63;2.03;;;3.70;91.50;;;;;;5097388;28;20422;-45
2022/02/07 09:42:30;;;;;;;7.53;2.47;;;4.00;91.50;;;;;;5099725;28;20421;-45
2022/02/07 09:45:07;;;;;;;8.60;2.10;;;4.20;91.30;;;;;;5098187;28;20663;-45
2022/02/07 09:47:32;;;;;;;6.23;1.67;;;4.50;90.90;;;;;;5096284;28;20208;-45
2022/02/07 09:49:58;;;;;;;7.70;1.73;;;4.40;90.40;;;;;;5097435;28;20426;-45
2022/02/07 09:52:24;;;;;;;5.93;1.83;;;4.30;90.50;;;;;;5095688;28;20205;-45
2022/02/07 09:55:08;;;;;;;4.73;1.80;;;4.40;90.10;;;;;;5099092;28;20199;-45
2022/02/07 09:57:34;;;;;;;6.00;1.37;;;4.10;90.30;;;;;;5096515;28;20195;-45
2022/02/07 10:00:05;;;;;;;4.93;2.10;;;4.10;90.70;;;;;;5096530;28;20659;-45
2022/02/07 10:02:47;;;;;;;5.97;1.57;;;3.90;90.90;;;;;;5096686;28;20212;-45
2022/02/07 10:05:20;;;;;;;8.37;2.10;;;3.90;90.90;;;;;;5095976;28;20525;-45
2022/02/07 10:08:14;;;;;;;4.73;1.77;;;4.00;91.30;;;;;;5098541;28;20466;-45
2022/02/07 10:10:57;;;;;;;10.70;2.40;;;4.40;90.80;;;;;;5097926;28;20427;-45
2022/02/07 10:16:08;;;;;;;4.23;1.47;;;5.50;89.50;;;;;;5095849;28;20526;-45
2022/02/07 10:18:58;;;;;;;7.10;1.73;;;6.10;87.00;;;;;;5095349;28;20758;-45
2022/02/07 10:46:11;;;;;;;7.37;2.07;;;4.60;86.10;;;;;;5095528;28;20433;-46
2022/02/07 10:48:44;;;;;;;7.23;1.80;;;4.70;87.30;;;;;;5096408;28;20687;-46
2022/02/07 10:51:36;;;;;;;9.37;2.03;;;4.60;88.00;;;;;;5095177;28;20704;-45
2022/02/07 10:54:12;;;;;;;6.30;2.20;;;4.60;88.20;;;;;;5092663;28;20423;-46
2022/02/07 10:56:48;;;;;;;6.33;1.90;;;4.60;88.20;;;;;;5095743;28;20948;-46
2022/02/07 10:59:17;;;;;;;7.50;1.50;;;4.50;88.00;;;;;;5093016;28;20411;-44
2022/02/07 11:04:20;;;;;;;6.27;1.70;;;5.40;94.90;;;;;;5094785;28;20728;-46
2022/02/07 11:06:49;;;;;;;7.20;1.73;;;5.80;91.00;;;;;;5095312;28;20805;-46
2022/02/07 11:27:52;;;;;;;14.23;6.27;;;6.70;84.30;;;;;;5093790;28;20527;-45
2022/02/07 11:30:34;;;;;;;7.30;2.80;;;6.70;83.70;;;;;;5093904;28;20421;-45
2022/02/07 11:33:00;;;;;;;7.67;1.83;;;6.50;84.00;;;;;;5095950;28;20802;-46
2022/02/07 11:35:30;;;;;;;5.20;1.97;;;6.70;86.90;;;;;;5092278;28;20427;-45
2022/02/07 11:38:02;;;;;;;5.93;3.27;;;6.60;84.90;;;;;;5092089;28;20502;-45
2022/02/07 11:40:35;;;;;;;5.87;2.07;;;6.60;84.80;;;;;;5093334;28;20441;-45
2022/02/07 11:43:11;;;;;;;8.10;3.07;;;6.30;82.90;;;;;;5093937;28;20433;-45
2022/02/07 11:45:55;;;;;;;9.40;2.80;;;5.90;82.30;;;;;;5094190;28;20487;-45
2022/02/07 11:48:36;;;;;;;7.30;2.60;;;5.10;82.70;;;;;;5093814;28;20418;-45
2022/02/07 11:51:15;;;;;;;5.07;1.47;;;5.00;85.10;;;;;;5094610;28;20436;-45
2022/02/07 11:53:53;;;;;;;8.57;2.53;;;4.70;85.40;;;;;;5093770;28;20423;-45
2022/02/07 11:56:37;;;;;;;7.10;2.57;;;4.70;86.70;;;;;;5096293;28;20413;-44
2022/02/07 12:01:58;;;;;;;3.93;1.80;;;4.40;88.60;;;;;;5096068;28;20792;-39
2022/02/07 12:04:45;;;;;;;8.03;2.23;;;4.40;89.30;;;;;;5093850;28;20779;-36
2022/02/07 12:07:11;;;;;;;8.63;2.97;;;4.80;92.30;;;;;;5092160;28;20498;-37
2022/02/07 12:10:03;;;;;;;5.20;2.33;;;4.90;89.20;;;;;;5095362;28;20508;-36
2022/02/07 12:12:45;;;;;;;8.53;3.10;;;4.60;87.20;;;;;;5094953;28;20423;-36
2022/02/07 12:15:31;;;;;;;8.20;2.67;;;4.50;87.50;;;;;;5095684;28;20409;-37
2022/02/07 12:17:59;;;;;;;5.23;1.90;;;4.50;88.10;;;;;;5094221;28;20438;-39
2022/02/07 12:20:31;;;;;;;3.97;1.60;;;4.30;88.50;;;;;;5092998;28;20445;-36
2022/02/07 12:23:05;;;;;;;7.80;3.67;;;4.30;88.90;;;;;;5093510;28;20513;-36
2022/02/07 12:25:38;;;;;;;8.30;2.03;;;4.30;88.90;;;;;;5091644;28;20474;-37
2022/02/07 12:28:08;;;;;;;18.20;3.87;;;4.20;89.60;;;;;;5091216;28;20415;-35
2022/02/07 12:33:10;;;;;;;4.90;2.37;;;4.30;88.70;;;;;;5093912;28;20409;-36
2022/02/07 12:35:35;;;;;;;6.07;2.20;;;4.40;89.00;;;;;;5094917;28;20469;-37
2022/02/07 12:38:02;;;;;;;6.73;2.50;;;4.40;88.30;;;;;;5092572;28;20447;-39
2022/02/07 12:40:27;;;;;;;7.13;1.70;;;4.40;88.90;;;;;;5093234;28;20188;-38
2022/02/07 12:42:55;;;;;;;5.90;2.93;;;4.40;89.60;;;;;;5094118;28;20414;-37
2022/02/07 12:45:27;;;;;;;5.90;2.40;;;4.50;89.30;;;;;;5092910;28;20208;-38
2022/02/07 12:47:56;;;;;;;8.73;2.40;;;4.50;89.60;;;;;;5093102;28;20477;-38
2022/02/07 12:50:23;;;;;;;7.50;2.03;;;4.40;89.10;;;;;;5093044;28;20728;-37
2022/02/07 12:52:48;;;;;;;9.60;2.77;;;4.50;89.70;;;;;;5092277;28;20862;-37
2022/02/07 12:55:16;;;;;;;6.53;2.37;;;4.50;90.20;;;;;;5091875;28;20427;-37
2022/02/07 12:57:42;;;;;;;4.20;1.93;;;4.40;90.40;;;;;;5093273;28;20165;-38
2022/02/07 13:00:10;;;;;;;5.57;1.87;;;4.40;90.00;;;;;;5092243;28;20769;-36
2022/02/07 13:02:41;;;;;;;9.53;2.57;;;4.30;90.50;;;;;;5092078;28;20419;-37
2022/02/07 13:05:10;;;;;;;6.90;2.60;;;4.30;90.70;;;;;;5089889;28;20441;-38
2022/02/07 13:07:41;;;;;;;6.37;2.17;;;4.30;91.00;;;;;;5092879;28;20450;-38
2022/02/07 13:10:07;;;;;;;8.60;2.37;;;4.20;90.90;;;;;;5092250;28;20443;-37
2022/02/07 13:12:50;;;;;;;9.60;2.80;;;4.30;91.40;;;;;;5094806;28;20914;-38
2022/02/07 13:15:18;;;;;;;6.03;2.33;;;4.30;91.20;;;;;;5090785;28;20449;-38
2022/02/07 13:17:49;;;;;;;5.90;1.90;;;4.40;91.20;;;;;;5093244;28;20419;-38
2022/02/07 13:20:18;;;;;;;3.50;1.63;;;4.50;90.90;;;;;;5078193;28;20462;-38
2022/02/07 13:22:44;;;;;;;5.57;2.40;;;4.50;90.20;;;;;;5094413;28;20454;-38
2022/02/07 13:25:10;;;;;;;7.17;2.77;;;4.80;90.40;;;;;;5093648;28;20549;-38
2022/02/07 13:27:40;;;;;;;4.97;2.33;;;5.10;90.10;;;;;;5095154;28;20501;-37
2022/02/07 13:30:12;;;;;;;5.67;2.47;;;5.80;88.90;;;;;;5094940;28;20565;-39
2022/02/07 13:32:39;;;;;;;5.23;2.10;;;6.20;85.10;;;;;;5095649;28;20411;-39
2022/02/07 13:35:13;;;;;;;4.40;2.00;;;6.20;85.70;;;;;;5097305;28;20422;-39
2022/02/07 13:37:40;;;;;;;6.30;2.37;;;6.30;84.50;;;;;;5096965;28;20411;-39
2022/02/07 13:40:07;;;;;;;10.13;2.00;;;6.70;83.40;;;;;;5098296;28;20420;-39
2022/02/07 13:42:48;;;;;;;2.90;1.43;;;7.00;82.30;;;;;;5100039;28;20430;-41
2022/02/07 13:45:17;;;;;;;8.43;1.90;;;6.80;80.10;;;;;;5100253;28;20479;-40
2022/02/07 13:47:45;;;;;;;5.23;2.67;;;6.80;81.20;;;;;;5097651;28;20470;-39
2022/02/07 13:50:12;;;;;;;9.87;2.30;;;6.50;82.60;;;;;;5078987;28;20427;-40
2022/02/07 13:52:43;;;;;;;7.07;2.07;;;6.40;81.20;;;;;;5077279;28;20419;-39
2022/02/07 13:55:20;;;;;;;4.83;1.60;;;6.70;81.50;;;;;;5075553;28;20504;-39
2022/02/07 13:58:00;;;;;;;4.10;2.10;;;6.80;79.20;;;;;;5076107;28;20824;-39
2022/02/07 14:00:29;;;;;;;7.53;2.40;;;7.40;80.80;;;;;;5077245;28;20415;-40
2022/02/07 14:03:25;;;;;;;5.47;1.70;;;7.60;78.00;;;;;;5073001;28;20443;-39
2022/02/07 14:05:55;;;;;;;9.30;2.17;;;7.30;78.50;;;;;;5075589;28;20422;-39
2022/02/07 14:08:38;;;;;;;10.83;2.77;;;7.10;79.70;;;;;;5073524;28;20419;-39
2022/02/07 14:11:06;;;;;;;7.27;2.17;;;7.40;79.00;;;;;;5072353;28;20469;-40
2022/02/07 14:13:32;;;;;;;3.67;1.97;;;7.60;78.60;;;;;;5073283;28;20427;-39
2022/02/07 14:15:58;;;;;;;5.50;1.90;;;8.60;76.30;;;;;;5075081;28;20566;-40
2022/02/07 14:18:26;;;;;;;6.40;1.70;;;8.90;73.60;;;;;;5074300;28;20438;-47
2022/02/07 14:20:53;;;;;;;4.93;1.83;;;8.70;71.60;;;;;;5076635;28;20471;-39
2022/02/07 14:23:20;;;;;;;8.20;1.67;;;8.90;70.90;;;;;;5074917;28;20439;-40
2022/02/07 14:25:51;;;;;;;5.93;3.00;;;8.70;69.60;;;;;;5084344;28;20479;-40
2022/02/07 14:28:19;;;;;;;5.77;2.67;;;8.90;70.50;;;;;;5075513;28;20439;-39
2022/02/07 14:30:45;;;;;;;4.30;1.90;;;9.30;70.00;;;;;;5076212;28;20400;-41
2022/02/07 14:33:11;;;;;;;4.87;2.80;;;9.80;68.40;;;;;;5077465;28;20435;-39
2022/02/07 14:35:37;;;;;;;5.30;2.50;;;10.10;64.20;;;;;;5077115;28;20415;-39
2022/02/07 14:38:05;;;;;;;8.13;2.60;;;10.10;63.60;;;;;;5076903;28;20416;-39
2022/02/07 14:40:32;;;;;;;5.50;2.13;;;10.40;63.10;;;;;;5076079;28;20462;-40
2022/02/07 14:43:01;;;;;;;6.90;2.03;;;10.30;61.90;;;;;;5075618;28;20424;-40
2022/02/07 14:45:32;;;;;;;3.87;1.53;;;10.70;60.60;;;;;;5074932;28;20423;-41
2022/02/07 14:48:01;;;;;;;4.20;1.53;;;10.90;59.80;;;;;;5073853;28;21010;-41
2022/02/07 14:50:28;;;;;;;7.70;2.10;;;11.60;58.50;;;;;;5075046;28;20414;-39
2022/02/07 14:52:55;;;;;;;6.60;1.73;;;10.70;57.10;;;;;;5075660;28;20428;-40
2022/02/07 14:55:23;;;;;;;6.47;2.10;;;9.90;58.50;;;;;;5073565;28;20408;-39
2022/02/07 14:57:49;;;;;;;3.53;1.80;;;9.50;58.80;;;;;;5076094;28;20439;-39
2022/02/07 15:00:18;;;;;;;5.23;2.10;;;9.80;59.50;;;;;;5076139;28;20864;-40
2022/02/07 15:02:45;;;;;;;5.17;2.50;;;9.70;58.60;;;;;;5078896;28;20439;-40
2022/02/07 15:05:12;;;;;;;5.53;1.50;;;9.80;59.20;;;;;;5077171;28;20415;-39
2022/02/07 15:07:38;;;;;;;5.57;2.13;;;9.20;59.20;;;;;;5072439;28;20486;-39
2022/02/07 15:10:05;;;;;;;6.80;1.80;;;9.10;59.90;;;;;;5073191;28;20851;-40
2022/02/07 15:12:31;;;;;;;6.87;1.83;;;8.60;61.40;;;;;;5071486;28;20174;-40
2022/02/07 15:14:58;;;;;;;4.70;1.97;;;8.60;62.10;;;;;;5074312;28;20422;-39
2022/02/07 15:17:28;;;;;;;4.50;1.90;;;7.90;62.80;;;;;;5073734;28;20441;-40
2022/02/07 15:19:58;;;;;;;7.93;2.17;;;7.40;65.70;;;;;;5074870;28;20431;-40
2022/02/07 15:22:26;;;;;;;8.17;2.13;;;7.20;67.30;;;;;;5070934;28;20721;-41
2022/02/07 15:24:52;;;;;;;4.90;2.03;;;7.40;68.40;;;;;;5072034;28;20737;-38
2022/02/07 15:27:18;;;;;;;3.90;2.00;;;7.00;67.80;;;;;;5070080;28;20467;-38
2022/02/07 15:29:44;;;;;;;4.97;2.27;;;6.70;69.30;;;;;;5072395;28;20848;-39
2022/02/07 15:32:32;;;;;;;7.30;2.00;;;6.50;71.10;;;;;;5070801;28;20166;-39
2022/02/07 15:35:01;;;;;;;10.27;3.70;;;6.60;71.90;;;;;;5073273;28;20411;-39
2022/02/07 15:37:29;;;;;;;4.40;2.20;;;6.20;72.70;;;;;;5071223;28;20428;-38
2022/02/07 15:39:55;;;;;;;5.77;2.83;;;5.80;74.10;;;;;;5074595;28;20580;-39
2022/02/07 15:42:21;;;;;;;6.30;2.50;;;5.30;76.10;;;;;;5074419;28;20431;-40
2022/02/07 15:44:48;;;;;;;11.03;2.07;;;5.00;78.60;;;;;;5075647;28;20515;-38
2022/02/07 15:47:14;;;;;;;2.47;1.47;;;4.80;79.30;;;;;;5074849;28;20850;-38
2022/02/07 15:49:40;;;;;;;5.73;2.53;;;4.60;80.50;;;;;;5074876;28;20464;-39
2022/02/07 15:52:06;;;;;;;9.30;2.27;;;4.60;81.60;;;;;;5072605;28;20500;-39
2022/02/07 15:54:36;;;;;;;6.97;2.10;;;4.50;82.80;;;;;;5072305;28;20404;-38
2022/02/07 15:57:04;;;;;;;6.30;2.13;;;4.40;83.60;;;;;;5072120;28;20845;-38
2022/02/07 15:59:29;;;;;;;5.83;2.40;;;4.30;84.50;;;;;;5072730;28;20419;-39
2022/02/07 16:01:55;;;;;;;6.83;2.63;;;4.40;85.20;;;;;;5074332;28;20415;-40